createdAt,value
2022-11-24T00:01:15.593Z,99.06
2022-11-24T00:03:43.978Z,99.07
2022-11-24T00:06:13.329Z,99.65
2022-11-24T00:08:42.948Z,99.72
2022-11-24T00:11:12.380Z,99.67
2022-11-24T00:13:40.610Z,99.73
2022-11-24T00:16:11.063Z,100.00
2022-11-24T00:18:42.081Z,100.00
2022-11-24T00:21:10.243Z,100.00
2022-11-24T00:23:38.725Z,100.00
2022-11-24T00:26:08.622Z,100.00
2022-11-24T00:28:37.432Z,100.00
2022-11-24T00:31:06.680Z,100.00
2022-11-24T00:33:34.820Z,100.00
2022-11-24T00:36:04.280Z,100.00
2022-11-24T00:38:32.274Z,100.00
2022-11-24T00:41:00.284Z,100.00
2022-11-24T00:43:28.333Z,100.00
2022-11-24T00:45:56.390Z,100.00
2022-11-24T00:48:24.613Z,100.00
2022-11-24T00:50:59.375Z,100.00
2022-11-24T00:53:28.965Z,100.00
2022-11-24T00:55:57.506Z,100.00
2022-11-24T00:58:26.163Z,100.00
2022-11-24T01:00:54.398Z,100.00
2022-11-24T01:03:22.787Z,100.00
2022-11-24T01:05:50.859Z,100.00
2022-11-24T01:08:19.084Z,100.00
2022-11-24T01:10:48.447Z,100.00
2022-11-24T01:13:16.686Z,100.00
2022-11-24T01:15:44.731Z,100.00
2022-11-24T01:18:13.261Z,100.00
2022-11-24T01:20:41.251Z,100.00
2022-11-24T01:23:09.320Z,100.00
2022-11-24T01:25:40.497Z,100.00
2022-11-24T01:28:09.800Z,100.00
2022-11-24T01:30:37.895Z,100.00
2022-11-24T01:33:06.149Z,100.00
2022-11-24T01:35:34.120Z,100.00
2022-11-24T01:38:02.098Z,100.00
2022-11-24T01:40:30.555Z,100.00
2022-11-24T01:42:58.526Z,100.00
2022-11-24T01:45:37.041Z,100.00
2022-11-24T01:48:07.270Z,100.00
2022-11-24T01:50:36.296Z,100.00
2022-11-24T01:53:04.599Z,100.00
2022-11-24T01:55:35.978Z,100.00
2022-11-24T01:58:06.733Z,100.00
2022-11-24T02:00:38.054Z,100.00
2022-11-24T02:03:06.410Z,100.00
2022-11-24T02:05:40.176Z,100.00
2022-11-24T02:08:13.173Z,100.00
2022-11-24T02:10:44.185Z,100.00
2022-11-24T02:13:12.284Z,100.00
2022-11-24T02:15:41.623Z,100.00
2022-11-24T02:18:09.670Z,100.00
2022-11-24T02:20:38.116Z,100.00
2022-11-24T02:23:15.388Z,100.00
2022-11-24T02:25:49.982Z,100.00
2022-11-24T02:28:21.357Z,100.00
2022-11-24T02:30:49.814Z,100.00
2022-11-24T02:33:18.254Z,100.00
2022-11-24T02:35:46.300Z,100.00
2022-11-24T02:38:14.738Z,100.00
2022-11-24T02:40:44.594Z,100.00
2022-11-24T02:43:15.402Z,100.00
2022-11-24T02:45:44.906Z,100.00
2022-11-24T02:48:14.690Z,100.00
2022-11-24T02:50:42.835Z,100.00
2022-11-24T02:53:10.840Z,100.00
2022-11-24T02:55:38.957Z,100.00
2022-11-24T02:58:07.173Z,100.00
2022-11-24T03:00:35.338Z,100.00
2022-11-24T03:03:05.043Z,99.67
2022-11-24T03:05:33.055Z,100.00
2022-11-24T03:08:01.199Z,100.00
2022-11-24T03:10:29.509Z,99.79
2022-11-24T03:12:57.569Z,100.00
2022-11-24T03:15:25.591Z,100.00
2022-11-24T03:17:55.775Z,100.00
2022-11-24T03:20:25.620Z,100.00
2022-11-24T03:22:53.749Z,100.00
2022-11-24T03:25:21.909Z,100.00
2022-11-24T03:27:49.887Z,100.00
2022-11-24T03:30:18.248Z,100.00
2022-11-24T03:32:46.250Z,100.00
2022-11-24T03:35:14.325Z,100.00
2022-11-24T03:37:43.695Z,100.00
2022-11-24T03:40:12.540Z,100.00
2022-11-24T03:42:41.065Z,100.00
2022-11-24T03:45:44.226Z,99.90
2022-11-24T03:47:58.132Z,99.57
2022-11-24T03:50:26.222Z,100.00
2022-11-24T03:52:55.607Z,99.66
2022-11-24T03:55:23.660Z,99.40
2022-11-24T03:57:51.668Z,99.12
2022-11-24T04:00:19.864Z,99.76
2022-11-24T04:02:48.599Z,99.62
2022-11-24T04:05:16.872Z,99.08
2022-11-24T04:07:44.897Z,99.46
2022-11-24T04:10:14.905Z,98.64
2022-11-24T04:12:44.815Z,98.42
2022-11-24T04:15:13.909Z,98.83
2022-11-24T04:17:42.104Z,98.24
2022-11-24T04:20:11.668Z,98.06
2022-11-24T04:22:39.725Z,97.46
2022-11-24T04:25:09.199Z,97.17
2022-11-24T04:27:39.164Z,97.02
2022-11-24T04:30:08.627Z,96.55
2022-11-24T04:32:36.818Z,96.27
2022-11-24T04:35:05.047Z,95.29
2022-11-24T04:37:33.291Z,94.79
2022-11-24T04:40:01.354Z,94.68
2022-11-24T04:42:29.505Z,94.55
2022-11-24T04:44:58.904Z,94.42
2022-11-24T04:47:27.643Z,94.33
2022-11-24T04:49:56.047Z,94.41
2022-11-24T04:52:25.610Z,93.98
2022-11-24T04:54:53.778Z,93.98
2022-11-24T04:57:24.194Z,94.46
2022-11-24T04:59:52.631Z,94.57
2022-11-24T05:02:22.438Z,95.01
2022-11-24T05:04:50.920Z,94.48
2022-11-24T05:07:19.657Z,94.49
2022-11-24T05:10:05.560Z,94.43
2022-11-24T05:12:33.647Z,94.92
2022-11-24T05:15:02.942Z,95.47
2022-11-24T05:17:34.963Z,95.74
2022-11-24T05:20:03.411Z,95.45
2022-11-24T05:22:31.714Z,95.65
2022-11-24T05:25:00.095Z,95.39
2022-11-24T05:27:28.166Z,94.65
2022-11-24T05:29:56.257Z,94.66
2022-11-24T05:32:24.429Z,95.08
2022-11-24T05:34:54.649Z,94.87
2022-11-24T05:37:22.843Z,94.60
2022-11-24T05:39:50.858Z,94.65
2022-11-24T05:42:36.358Z,94.52
2022-11-24T05:45:04.909Z,94.68
2022-11-24T05:47:34.131Z,94.50
2022-11-24T05:50:03.564Z,94.61
2022-11-24T05:52:31.648Z,95.10
2022-11-24T05:54:59.691Z,95.87
2022-11-24T05:57:27.782Z,97.49
2022-11-24T05:59:55.915Z,97.37
2022-11-24T06:02:24.160Z,97.85
2022-11-24T06:04:52.271Z,98.02
2022-11-24T06:07:21.696Z,97.93
2022-11-24T06:09:49.752Z,98.34
2022-11-24T06:12:17.832Z,98.36
2022-11-24T06:14:45.874Z,98.37
2022-11-24T06:17:13.971Z,98.70
2022-11-24T06:19:43.678Z,98.50
2022-11-24T06:22:11.746Z,98.12
2022-11-24T06:24:41.123Z,98.19
2022-11-24T06:27:09.142Z,98.10
2022-11-24T06:29:37.214Z,97.90
2022-11-24T06:32:05.657Z,97.91
2022-11-24T06:34:34.095Z,97.54
2022-11-24T06:37:02.375Z,97.72
2022-11-24T06:39:30.408Z,97.72
2022-11-24T06:41:59.959Z,97.16
2022-11-24T06:44:28.015Z,97.38
2022-11-24T06:46:56.151Z,97.69
2022-11-24T06:49:24.270Z,97.35
2022-11-24T06:51:52.300Z,97.01
2022-11-24T06:54:21.146Z,96.85
2022-11-24T06:56:49.204Z,96.83
2022-11-24T06:59:20.539Z,97.07
2022-11-24T07:01:48.744Z,96.92
2022-11-24T07:04:17.062Z,96.25
2022-11-24T07:06:45.128Z,96.06
2022-11-24T07:09:14.449Z,96.17
2022-11-24T07:11:42.611Z,95.65
2022-11-24T07:14:10.858Z,95.72
2022-11-24T07:16:40.622Z,95.47
2022-11-24T07:19:10.984Z,95.26
2022-11-24T07:21:39.042Z,95.18
2022-11-24T07:24:07.859Z,94.91
2022-11-24T07:26:37.484Z,95.40
2022-11-24T07:29:06.035Z,94.91
2022-11-24T07:31:34.229Z,94.69
2022-11-24T07:34:03.684Z,94.58
2022-11-24T07:36:31.919Z,94.91
2022-11-24T07:39:00.018Z,94.70
2022-11-24T07:41:28.027Z,94.29
2022-11-24T07:43:56.793Z,94.34
2022-11-24T07:46:24.924Z,94.07
2022-11-24T07:48:53.026Z,93.99
2022-11-24T07:51:22.470Z,94.09
2022-11-24T07:53:50.518Z,93.70
2022-11-24T07:56:18.622Z,94.01
2022-11-24T07:58:52.484Z,93.75
2022-11-24T08:01:21.292Z,93.29
2022-11-24T08:03:49.502Z,93.12
2022-11-24T08:06:29.003Z,92.72
2022-11-24T08:09:01.922Z,92.69
2022-11-24T08:11:31.417Z,92.45
2022-11-24T08:13:59.739Z,92.36
2022-11-24T08:16:27.856Z,92.57
2022-11-24T08:18:57.065Z,92.21
2022-11-24T08:21:25.785Z,91.81
2022-11-24T08:23:56.065Z,92.46
2022-11-24T08:26:25.799Z,91.51
2022-11-24T08:28:56.426Z,92.01
2022-11-24T08:31:27.660Z,90.49
2022-11-24T08:33:56.442Z,90.15
2022-11-24T08:36:24.581Z,89.23
2022-11-24T08:38:56.116Z,89.17
2022-11-24T08:41:26.257Z,87.83
2022-11-24T08:43:54.341Z,86.80
2022-11-24T08:46:22.612Z,87.37
2022-11-24T08:48:53.217Z,87.68
2022-11-24T08:51:22.431Z,87.37
2022-11-24T08:53:50.727Z,87.01
2022-11-24T08:56:18.813Z,86.79
2022-11-24T08:58:48.337Z,87.23
2022-11-24T09:01:18.246Z,87.22
2022-11-24T09:03:50.952Z,87.13
2022-11-24T09:06:20.072Z,85.86
2022-11-24T09:08:48.567Z,84.87
2022-11-24T09:11:17.400Z,85.12
2022-11-24T09:13:46.103Z,86.28
2022-11-24T09:16:16.959Z,84.97
2022-11-24T09:18:45.744Z,84.13
2022-11-24T09:21:16.006Z,85.11
2022-11-24T09:23:45.208Z,83.76
2022-11-24T09:26:15.485Z,83.59
2022-11-24T09:28:44.053Z,84.35
2022-11-24T09:31:14.175Z,84.89
2022-11-24T09:33:44.320Z,83.98
2022-11-24T09:36:12.529Z,83.87
2022-11-24T09:38:40.650Z,82.39
2022-11-24T09:41:36.068Z,83.54
2022-11-24T09:44:09.669Z,82.97
2022-11-24T09:46:42.771Z,83.03
2022-11-24T09:49:15.443Z,84.03
2022-11-24T09:51:45.460Z,83.42
2022-11-24T09:54:18.074Z,82.07
2022-11-24T09:56:47.741Z,82.27
2022-11-24T09:59:17.795Z,82.33
2022-11-24T10:01:47.102Z,82.20
2022-11-24T10:04:19.837Z,83.24
2022-11-24T10:06:53.269Z,83.84
2022-11-24T10:09:34.259Z,82.47
2022-11-24T10:12:13.678Z,80.98
2022-11-24T10:14:59.437Z,81.04
2022-11-24T10:17:38.033Z,81.67
2022-11-24T10:20:12.256Z,80.29
2022-11-24T10:22:47.851Z,80.54
2022-11-24T10:25:22.847Z,80.92
2022-11-24T10:27:56.366Z,80.95
2022-11-24T10:30:24.919Z,80.59
2022-11-24T10:32:57.377Z,81.96
2022-11-24T10:35:30.254Z,81.82
2022-11-24T10:38:08.903Z,81.61
2022-11-24T10:40:56.416Z,81.26
2022-11-24T10:43:27.414Z,81.62
2022-11-24T10:45:56.368Z,80.94
2022-11-24T10:48:27.310Z,81.62
2022-11-24T10:51:02.384Z,80.35
2022-11-24T10:53:31.523Z,81.43
2022-11-24T10:56:04.961Z,81.81
2022-11-24T10:58:37.619Z,81.48
2022-11-24T11:01:22.332Z,81.63
2022-11-24T11:03:52.828Z,80.45
2022-11-24T11:06:24.732Z,81.44
2022-11-24T11:09:17.531Z,82.95
2022-11-24T11:11:48.268Z,82.44
2022-11-24T11:14:30.984Z,84.90
2022-11-24T11:16:59.301Z,85.48
2022-11-24T11:19:48.356Z,87.20
2022-11-24T11:22:25.563Z,86.27
2022-11-24T11:25:05.249Z,87.67
2022-11-24T11:27:33.400Z,89.27
2022-11-24T11:36:10.907Z,91.95
2022-11-24T11:38:41.639Z,91.49
2022-11-24T11:41:18.894Z,91.34
2022-11-24T11:43:49.756Z,91.79
2022-11-24T11:46:17.984Z,91.85
2022-11-24T11:48:47.413Z,91.42
2022-11-24T11:51:31.872Z,92.00
2022-11-24T11:54:06.523Z,92.14
2022-11-24T11:56:37.322Z,92.18
2022-11-24T11:59:25.333Z,91.40
2022-11-24T12:02:29.154Z,91.86
2022-11-24T12:04:59.455Z,91.37
2022-11-24T12:07:42.282Z,91.87
2022-11-24T12:10:19.141Z,92.51
2022-11-24T12:12:59.940Z,91.43
2022-11-24T12:15:33.837Z,89.83
2022-11-24T12:18:33.133Z,90.52
2022-11-24T12:21:07.781Z,89.65
2022-11-24T12:23:44.062Z,90.13
2022-11-24T12:26:20.230Z,90.26
2022-11-24T12:28:55.209Z,90.85
2022-11-24T12:31:27.348Z,91.17
2022-11-24T12:34:22.625Z,91.09
2022-11-24T12:37:12.690Z,90.89
2022-11-24T12:39:46.833Z,90.46
2022-11-24T12:42:26.208Z,90.13
2022-11-24T12:45:15.537Z,90.12
2022-11-24T12:47:58.902Z,89.83
2022-11-24T12:50:29.282Z,90.18
2022-11-24T12:53:01.505Z,89.45
2022-11-24T12:55:32.190Z,89.56
2022-11-24T12:58:11.218Z,88.58
2022-11-24T13:00:48.922Z,88.56
2022-11-24T13:03:26.036Z,87.90
2022-11-24T13:05:58.833Z,87.98
2022-11-24T13:08:27.497Z,88.14
2022-11-24T13:10:57.323Z,86.77
2022-11-24T13:13:30.407Z,87.66
2022-11-24T13:19:15.094Z,88.61
2022-11-24T13:21:51.949Z,86.37
2022-11-24T13:24:24.440Z,86.45
2022-11-24T13:26:54.500Z,86.58
2022-11-24T13:29:35.806Z,86.80
2022-11-24T13:32:40.176Z,86.02
2022-11-24T13:35:15.162Z,87.00
2022-11-24T13:37:51.525Z,86.73
2022-11-24T13:40:45.865Z,86.14
2022-11-24T13:43:23.995Z,86.15
2022-11-24T13:45:54.633Z,86.56
2022-11-24T13:48:54.895Z,87.22
2022-11-24T13:51:24.859Z,87.64
2022-11-24T13:53:54.948Z,87.04
2022-11-24T13:56:26.572Z,86.89
2022-11-24T13:58:56.765Z,86.96
2022-11-24T14:01:28.382Z,86.60
2022-11-24T14:04:29.472Z,87.01
2022-11-24T14:07:02.511Z,87.00
2022-11-24T14:09:37.036Z,87.68
2022-11-24T14:12:14.940Z,86.72
2022-11-24T14:14:44.164Z,86.78
2022-11-24T14:17:22.841Z,87.06
2022-11-24T14:19:52.756Z,86.85
2022-11-24T14:22:22.973Z,85.96
2022-11-24T14:24:55.803Z,85.20
2022-11-24T14:27:29.341Z,84.73
2022-11-24T14:29:59.018Z,85.29
2022-11-24T14:32:28.619Z,86.17
2022-11-24T14:34:57.944Z,86.37
2022-11-24T14:37:26.109Z,86.80
2022-11-24T14:39:54.270Z,86.78
2022-11-24T14:42:23.586Z,86.60
2022-11-24T14:44:54.145Z,86.43
2022-11-24T14:47:31.863Z,87.03
2022-11-24T14:50:10.104Z,86.15
2022-11-24T14:52:45.390Z,85.92
2022-11-24T14:55:26.659Z,85.51
2022-11-24T14:57:54.856Z,85.14
2022-11-24T15:00:28.436Z,85.22
2022-11-24T15:03:13.523Z,85.63
2022-11-24T15:06:00.475Z,85.68
2022-11-24T15:08:30.105Z,85.79
2022-11-24T15:11:00.326Z,85.87
2022-11-24T15:13:28.961Z,85.00
2022-11-24T15:16:02.827Z,84.69
2022-11-24T15:18:38.662Z,85.08
2022-11-24T15:21:07.040Z,84.87
2022-11-24T15:23:35.858Z,84.31
2022-11-24T15:26:30.718Z,85.42
2022-11-24T15:29:01.164Z,85.41
2022-11-24T15:31:29.270Z,85.90
2022-11-24T15:33:58.689Z,85.70
2022-11-24T15:36:26.780Z,85.71
2022-11-24T15:38:56.084Z,85.73
2022-11-24T15:41:30.052Z,85.13
2022-11-24T15:43:59.876Z,85.50
2022-11-24T15:46:28.584Z,85.88
2022-11-24T15:48:58.127Z,86.59
2022-11-24T15:51:27.275Z,87.13
2022-11-24T15:54:00.735Z,87.17
2022-11-24T15:56:32.365Z,87.25
2022-11-24T15:59:00.490Z,87.58
2022-11-24T16:01:30.408Z,87.82
2022-11-24T16:03:59.874Z,88.02
2022-11-24T16:06:27.918Z,87.55
2022-11-24T16:08:56.091Z,87.58
2022-11-24T16:11:24.257Z,87.42
2022-11-24T16:13:53.919Z,87.36
2022-11-24T16:16:22.977Z,87.50
2022-11-24T16:18:51.176Z,88.09
2022-11-24T16:21:20.605Z,87.81
2022-11-24T16:23:48.812Z,87.75
2022-11-24T16:26:16.945Z,88.12
2022-11-24T16:28:45.826Z,87.95
2022-11-24T16:31:16.058Z,87.90
2022-11-24T16:33:44.785Z,87.88
2022-11-24T16:36:13.282Z,87.50
2022-11-24T16:38:42.896Z,87.03
2022-11-24T16:41:11.056Z,86.91
2022-11-24T16:43:39.609Z,87.06
2022-11-24T16:46:32.921Z,86.86
2022-11-24T16:49:01.585Z,86.98
2022-11-24T16:51:34.633Z,86.51
2022-11-24T16:54:05.376Z,86.48
2022-11-24T16:56:33.426Z,86.09
2022-11-24T16:59:01.554Z,85.71
2022-11-24T17:01:30.600Z,86.10
2022-11-24T17:03:58.619Z,85.97
2022-11-24T17:06:26.896Z,85.79
2022-11-24T17:08:56.476Z,85.31
2022-11-24T17:11:27.665Z,85.38
2022-11-24T17:13:57.238Z,85.03
2022-11-24T17:16:26.600Z,85.05
2022-11-24T17:18:54.845Z,84.82
2022-11-24T17:21:24.820Z,84.55
2022-11-24T17:23:54.650Z,84.54
2022-11-24T17:26:23.009Z,84.62
2022-11-24T17:28:52.670Z,84.07
2022-11-24T17:31:22.654Z,85.19
2022-11-24T17:33:51.377Z,85.69
2022-11-24T17:36:19.833Z,85.61
2022-11-24T17:38:49.395Z,85.46
2022-11-24T17:41:17.520Z,86.37
2022-11-24T17:43:49.360Z,86.87
2022-11-24T17:46:19.691Z,86.41
2022-11-24T17:48:47.991Z,86.57
2022-11-24T17:51:17.455Z,86.35
2022-11-24T17:53:46.983Z,86.61
2022-11-24T17:56:16.801Z,86.71
2022-11-24T17:58:45.391Z,86.31
2022-11-24T18:01:14.352Z,86.80
2022-11-24T18:03:46.670Z,86.00
2022-11-24T18:06:18.197Z,85.64
2022-11-24T18:08:47.947Z,85.20
2022-11-24T18:11:17.390Z,84.89
2022-11-24T18:14:02.171Z,85.19
2022-11-24T18:16:31.750Z,85.04
2022-11-24T18:19:10.795Z,84.71
2022-11-24T18:21:47.613Z,84.67
2022-11-24T18:24:19.791Z,84.42
2022-11-24T18:26:51.933Z,84.34
2022-11-24T18:29:20.076Z,83.82
2022-11-24T18:31:48.334Z,83.86
2022-11-24T18:34:17.908Z,85.12
2022-11-24T18:36:47.516Z,85.03
2022-11-24T18:39:18.060Z,84.80
2022-11-24T18:41:46.462Z,84.82
2022-11-24T18:44:14.630Z,84.56
2022-11-24T18:46:42.746Z,84.46
2022-11-24T18:49:10.856Z,84.42
2022-11-24T18:51:40.453Z,84.33
2022-11-24T18:54:08.765Z,84.71
2022-11-24T18:56:36.999Z,84.64
2022-11-24T18:59:05.205Z,84.84
2022-11-24T19:01:33.558Z,84.45
2022-11-24T19:04:03.058Z,84.89
2022-11-24T19:06:33.057Z,84.88
2022-11-24T19:09:04.554Z,84.88
2022-11-24T19:11:35.324Z,84.87
2022-11-24T19:14:05.066Z,84.70
2022-11-24T19:16:33.585Z,85.03
2022-11-24T19:19:03.028Z,84.50
2022-11-24T19:21:32.756Z,84.64
2022-11-24T19:24:05.310Z,84.04
2022-11-24T19:26:34.954Z,83.42
2022-11-24T19:29:03.515Z,84.70
2022-11-24T19:31:32.141Z,84.17
2022-11-24T19:34:00.797Z,84.85
2022-11-24T19:36:28.971Z,85.59
2022-11-24T19:38:58.193Z,85.25
2022-11-24T19:41:29.493Z,86.06
2022-11-24T19:43:58.622Z,86.49
2022-11-24T19:46:29.269Z,86.87
2022-11-24T19:49:00.541Z,85.89
2022-11-24T19:51:30.650Z,85.67
2022-11-24T19:53:59.304Z,85.68
2022-11-24T19:56:30.993Z,85.59
2022-11-24T19:58:59.140Z,85.58
2022-11-24T20:01:29.187Z,86.29
2022-11-24T20:03:59.186Z,86.07
2022-11-24T20:06:28.179Z,85.94
2022-11-24T20:08:56.434Z,86.18
2022-11-24T20:11:24.682Z,85.92
2022-11-24T20:13:54.338Z,85.37
2022-11-24T20:16:26.519Z,85.94
2022-11-24T20:18:55.692Z,85.56
2022-11-24T20:21:25.306Z,85.87
2022-11-24T20:23:55.882Z,86.15
2022-11-24T20:26:25.881Z,86.29
2022-11-24T20:28:56.440Z,86.49
2022-11-24T20:31:26.749Z,86.69
2022-11-24T20:33:55.086Z,85.50
2022-11-24T20:36:25.597Z,85.91
2022-11-24T20:38:54.350Z,86.73
2022-11-24T20:41:24.172Z,85.85
2022-11-24T20:43:52.949Z,85.97
2022-11-24T20:46:23.568Z,84.70
2022-11-24T20:48:52.086Z,84.70
2022-11-24T20:51:23.446Z,85.58
2022-11-24T20:53:52.387Z,85.37
2022-11-24T20:56:22.004Z,85.59
2022-11-24T20:58:50.062Z,85.57
2022-11-24T21:01:19.706Z,85.03
2022-11-24T21:03:53.403Z,85.48
2022-11-24T21:06:21.675Z,85.25
2022-11-24T21:08:50.493Z,85.50
2022-11-24T21:11:19.621Z,86.20
2022-11-24T21:13:48.718Z,85.89
2022-11-24T21:16:18.620Z,85.75
2022-11-24T21:18:50.657Z,85.20
2022-11-24T21:21:19.357Z,86.36
2022-11-24T21:23:47.795Z,86.13
2022-11-24T21:26:17.297Z,86.49
2022-11-24T21:28:46.873Z,86.47
2022-11-24T21:31:17.113Z,86.80
2022-11-24T21:33:46.588Z,86.52
2022-11-24T21:36:18.043Z,86.99
2022-11-24T21:38:51.021Z,86.43
2022-11-24T21:41:19.927Z,85.72
2022-11-24T21:43:48.067Z,86.43
2022-11-24T21:46:16.185Z,86.34
2022-11-24T21:48:45.340Z,86.52
2022-11-24T21:51:15.708Z,86.56
2022-11-24T21:53:46.528Z,86.02
2022-11-24T21:56:17.053Z,86.76
2022-11-24T21:58:47.167Z,86.65
2022-11-24T22:01:16.380Z,86.60
2022-11-24T22:03:45.721Z,86.59
2022-11-24T22:06:14.209Z,86.32
2022-11-24T22:08:42.376Z,86.86
2022-11-24T22:11:13.866Z,86.14
2022-11-24T22:13:42.514Z,86.58
2022-11-24T22:16:12.627Z,86.53
2022-11-24T22:18:42.046Z,85.55
2022-11-24T22:21:13.525Z,85.59
2022-11-24T22:23:41.897Z,86.89
2022-11-24T22:26:14.447Z,86.79
2022-11-24T22:28:43.246Z,85.50
2022-11-24T22:31:13.105Z,85.96
2022-11-24T22:33:41.356Z,86.47
2022-11-24T22:36:10.676Z,87.16
2022-11-24T22:38:39.034Z,87.22
2022-11-24T22:41:08.482Z,87.45
2022-11-24T22:43:40.433Z,87.20
2022-11-24T22:46:10.986Z,86.37
2022-11-24T22:48:39.615Z,87.43
2022-11-24T22:51:09.140Z,87.30
2022-11-24T22:53:37.411Z,87.68
2022-11-24T22:56:07.281Z,87.05
2022-11-24T22:58:35.350Z,87.47
2022-11-24T23:01:08.473Z,86.39
2022-11-24T23:03:37.407Z,87.00
2022-11-24T23:06:07.229Z,86.41
2022-11-24T23:08:36.588Z,87.00
2022-11-24T23:11:06.343Z,86.23
2022-11-24T23:13:34.435Z,87.36
2022-11-24T23:16:03.826Z,86.76
2022-11-24T23:18:33.559Z,86.69
2022-11-24T23:21:06.414Z,86.38
2022-11-24T23:23:34.682Z,87.30
2022-11-24T23:26:03.083Z,86.80
2022-11-24T23:28:31.193Z,87.30
2022-11-24T23:31:02.505Z,87.45
2022-11-24T23:33:31.092Z,87.99
2022-11-24T23:36:03.065Z,87.48
2022-11-24T23:38:32.762Z,87.35
2022-11-24T23:41:04.146Z,87.05
2022-11-24T23:43:32.542Z,86.74
2022-11-24T23:46:04.125Z,86.92
2022-11-24T23:48:32.535Z,86.79
2022-11-24T23:51:06.088Z,87.08
2022-11-24T23:53:34.547Z,87.93
2022-11-24T23:56:02.604Z,87.91
2022-11-24T23:58:31.509Z,87.18
